Time;durP1;ratioP1;P1;durP2;ratioP2;P2;SDS_P1;SDS_P2;PMS_P1;PMS_P2;Temp;Humidity;BMP_temperature;BMP_pressure;BME280_temperature;BME280_humidity;BME280_pressure;Samples;Min_cycle;Max_cycle;Signal;HPM_P1;HPM_P2
2021/11/09 00:01:09;;;;;;;29.48;18.98;;;;;;;5.43;100.00;100277.97;5111623;28;20187;-77
2021/11/09 00:03:42;;;;;;;32.05;17.75;;;;;;;5.35;100.00;100282.63;5111867;28;20211;-77
2021/11/09 00:06:16;;;;;;;30.73;20.35;;;;;;;5.44;100.00;100272.56;5111629;28;20192;-77
2021/11/09 00:08:48;;;;;;;26.38;18.02;;;;;;;5.37;100.00;100267.44;5111302;28;20303;-76
2021/11/09 00:11:14;;;;;;;31.25;18.10;;;;;;;5.50;100.00;100266.22;5111599;28;20184;-77
2021/11/09 00:13:43;;;;;;;25.92;17.35;;;;;;;5.16;100.00;100268.88;5110617;28;20290;-76
2021/11/09 00:16:10;;;;;;;30.90;18.05;;;;;;;5.03;100.00;100275.44;5110819;28;20227;-77
2021/11/09 00:18:37;;;;;;;32.22;18.13;;;;;;;5.12;100.00;100272.53;5111602;28;20194;-78
2021/11/09 00:21:04;;;;;;;34.65;21.65;;;;;;;5.23;100.00;100278.50;5110763;28;20533;-77
2021/11/09 00:23:30;;;;;;;41.63;18.48;;;;;;;5.22;100.00;100274.94;5111187;28;20191;-77
2021/11/09 00:25:57;;;;;;;26.50;17.98;;;;;;;5.19;100.00;100275.00;5111436;28;20542;-76
2021/11/09 00:28:24;;;;;;;31.75;18.75;;;;;;;5.34;100.00;100271.09;5110679;28;20261;-77
2021/11/09 00:30:52;;;;;;;31.55;19.98;;;;;;;5.35;100.00;100271.94;5111580;28;20529;-77
2021/11/09 00:33:18;;;;;;;21.85;16.63;;;;;;;5.40;100.00;100268.25;5110795;28;20184;-77
2021/11/09 00:35:45;;;;;;;34.35;17.17;;;;;;;5.39;100.00;100274.50;5110815;28;20216;-77
2021/11/09 00:38:13;;;;;;;28.65;15.93;;;;;;;5.26;100.00;100264.19;5111653;28;20658;-77
2021/11/09 00:40:42;;;;;;;53.42;19.02;;;;;;;5.20;100.00;100263.44;5110086;28;20190;-77
2021/11/09 00:43:11;;;;;;;24.63;17.02;;;;;;;4.88;100.00;100266.88;5111521;28;20622;-77
2021/11/09 00:45:39;;;;;;;23.42;15.77;;;;;;;4.89;100.00;100271.31;5110612;28;20196;-77
2021/11/09 00:48:08;;;;;;;31.75;17.08;;;;;;;4.67;100.00;100284.28;5111257;28;20687;-77
2021/11/09 00:50:36;;;;;;;28.90;15.73;;;;;;;4.89;100.00;100284.66;5110599;28;20286;-77
2021/11/09 00:53:03;;;;;;;27.90;15.27;;;;;;;4.96;100.00;100278.25;5111243;28;20557;-77
2021/11/09 00:55:30;;;;;;;18.58;13.35;;;;;;;4.83;100.00;100276.78;5110413;28;20189;-77
2021/11/09 00:57:57;;;;;;;29.45;13.32;;;;;;;4.64;100.00;100281.69;5110983;28;20640;-76
2021/11/09 01:00:26;;;;;;;40.60;15.57;;;;;;;4.38;100.00;100287.59;5112471;28;20293;-77
2021/11/09 01:02:53;;;;;;;30.10;13.05;;;;;;;4.23;100.00;100295.91;5115329;28;20202;-76
2021/11/09 01:05:26;;;;;;;30.50;14.45;;;;;;;4.06;100.00;100296.28;5114342;28;20212;-77
2021/11/09 01:07:57;;;;;;;32.05;13.25;;;;;;;4.08;100.00;100300.66;5112900;28;20295;-76
2021/11/09 01:10:25;;;;;;;28.08;13.98;;;;;;;4.19;100.00;100300.44;5111140;28;20272;-76
2021/11/09 01:12:52;;;;;;;21.38;14.95;;;;;;;4.06;100.00;100302.47;5108012;28;20230;-77
2021/11/09 01:15:18;;;;;;;28.95;16.02;;;;;;;4.11;100.00;100299.72;5107755;28;20720;-77
2021/11/09 01:17:46;;;;;;;27.13;18.42;;;;;;;4.36;100.00;100298.31;5111344;28;20269;-77
2021/11/09 01:20:15;;;;;;;38.20;20.52;;;;;;;4.58;100.00;100300.50;5115037;28;20184;-78
2021/11/09 01:22:46;;;;;;;30.02;18.67;;;;;;;4.70;100.00;100299.34;5111764;28;20204;-77
2021/11/09 01:25:14;;;;;;;30.15;18.05;;;;;;;4.93;100.00;100296.13;5113259;28;20191;-77
2021/11/09 01:27:41;;;;;;;30.42;18.98;;;;;;;4.83;100.00;100294.59;5108321;28;20242;-76
2021/11/09 01:30:09;;;;;;;33.55;17.23;;;;;;;4.86;100.00;100292.75;5114225;28;20690;-76
2021/11/09 01:32:36;;;;;;;38.65;17.80;;;;;;;4.75;100.00;100295.66;5107004;28;20652;-76
2021/11/09 01:35:05;;;;;;;34.47;16.02;;;;;;;4.83;100.00;100294.59;5113417;28;20279;-77
2021/11/09 01:37:32;;;;;;;36.20;16.08;;;;;;;4.30;100.00;100298.44;5112452;27;20184;-76
2021/11/09 01:40:01;;;;;;;38.00;17.20;;;;;;;3.99;100.00;100307.97;5107017;28;20279;-77
2021/11/09 01:42:28;;;;;;;30.40;15.07;;;;;;;3.94;100.00;100313.41;5114708;27;20192;-76
2021/11/09 01:44:54;;;;;;;28.13;16.10;;;;;;;4.03;100.00;100307.88;5113915;28;20188;-77
2021/11/09 01:47:21;;;;;;;24.00;15.10;;;;;;;4.06;100.00;100312.28;5116112;27;20283;-77
2021/11/09 01:49:47;;;;;;;28.50;15.05;;;;;;;3.93;100.00;100304.53;5114105;28;20188;-77
2021/11/09 01:52:14;;;;;;;26.08;13.70;;;;;;;3.76;100.00;100298.66;5109122;28;20283;-77
2021/11/09 01:54:41;;;;;;;24.85;14.88;;;;;;;3.81;100.00;100301.22;5113602;28;20184;-77
2021/11/09 01:57:09;;;;;;;32.35;16.85;;;;;;;3.80;100.00;100296.78;5111656;28;20548;-77
2021/11/09 01:59:36;;;;;;;39.08;15.65;;;;;;;3.74;100.00;100296.00;5107778;28;20187;-76
2021/11/09 02:02:03;;;;;;;25.38;15.13;;;;;;;3.73;100.00;100298.69;5113712;28;20203;-77
2021/11/09 02:04:30;;;;;;;34.20;16.15;;;;;;;3.77;100.00;100295.06;5107284;28;20182;-77
2021/11/09 02:06:57;;;;;;;23.05;14.95;;;;;;;3.86;100.00;100292.22;5112733;28;20552;-77
2021/11/09 02:09:23;;;;;;;24.98;15.30;;;;;;;3.81;100.00;100298.56;5112795;28;20214;-76
2021/11/09 02:11:50;;;;;;;28.25;15.05;;;;;;;3.99;100.00;100299.97;5106329;28;20202;-77
2021/11/09 02:14:18;;;;;;;25.70;14.43;;;;;;;3.95;100.00;100297.34;5105702;28;20286;-76
2021/11/09 02:16:45;;;;;;;39.15;15.65;;;;;;;3.83;100.00;100294.06;5106633;28;20607;-76
2021/11/09 02:19:13;;;;;;;23.42;13.80;;;;;;;3.88;100.00;100297.53;5106249;28;20206;-76
2021/11/09 02:21:41;;;;;;;32.40;14.48;;;;;;;3.86;100.00;100302.00;5112333;28;20190;-76
2021/11/09 02:24:08;;;;;;;31.75;14.43;;;;;;;3.92;100.00;100305.41;5106672;28;20196;-77
2021/11/09 02:26:36;;;;;;;35.63;13.98;;;;;;;3.82;100.00;100310.94;5107875;28;20235;-76
2021/11/09 02:29:03;;;;;;;38.35;13.50;;;;;;;3.92;100.00;100309.88;5109955;28;20204;-76
2021/11/09 02:31:31;;;;;;;40.47;13.88;;;;;;;3.73;100.00;100312.00;5108672;28;20590;-77
2021/11/09 02:33:58;;;;;;;62.85;14.00;;;;;;;3.62;100.00;100303.31;5099608;28;20193;-77
2021/11/09 02:36:25;;;;;;;34.95;12.45;;;;;;;3.43;100.00;100298.34;5110377;28;20266;-77
2021/11/09 02:38:53;;;;;;;37.85;12.60;;;;;;;3.29;100.00;100300.38;5112524;28;20607;-77
2021/11/09 02:41:20;;;;;;;23.00;10.90;;;;;;;3.68;100.00;100304.09;5107461;28;20540;-77
2021/11/09 02:43:47;;;;;;;22.67;12.02;;;;;;;3.70;100.00;100304.06;5107590;28;20556;-76
2021/11/09 02:46:31;;;;;;;25.23;13.20;;;;;;;3.53;100.00;100301.75;5107138;28;20183;-76
2021/11/09 02:49:05;;;;;;;19.33;13.00;;;;;;;3.74;100.00;100301.31;5110367;28;20200;-76
2021/11/09 02:51:37;;;;;;;21.52;14.63;;;;;;;3.91;100.00;100298.34;5110229;28;20207;-77
2021/11/09 02:54:09;;;;;;;26.60;12.77;;;;;;;3.92;100.00;100293.91;5112061;28;20184;-76
2021/11/09 02:56:40;;;;;;;14.57;11.75;;;;;;;4.14;100.00;100305.00;5113113;28;20272;-77
2021/11/09 02:59:16;;;;;;;23.45;11.10;;;;;;;3.82;100.00;100292.31;5111100;28;20216;-76
2021/11/09 03:01:49;;;;;;;25.33;11.98;;;;;;;3.68;100.00;100289.91;5111298;28;20196;-77
2021/11/09 03:04:23;;;;;;;15.40;10.77;;;;;;;3.75;100.00;100302.19;5106683;28;20207;-76
2021/11/09 03:06:54;;;;;;;18.33;10.50;;;;;;;3.79;100.00;100300.38;5106650;28;20220;-77
2021/11/09 03:09:33;;;;;;;16.80;10.38;;;;;;;3.90;100.00;100296.56;5112058;28;20672;-77
2021/11/09 03:12:03;;;;;;;24.42;11.43;;;;;;;3.91;100.00;100306.34;5105064;28;20187;-77
2021/11/09 03:14:29;;;;;;;19.92;11.15;;;;;;;3.74;100.00;100308.44;5107612;28;20289;-77
2021/11/09 03:16:59;;;;;;;21.30;11.43;;;;;;;3.70;100.00;100304.94;5112656;28;20607;-77
2021/11/09 03:19:33;;;;;;;15.20;11.02;;;;;;;3.71;100.00;100306.72;5109028;28;20185;-77
2021/11/09 03:46:54;;;;;;;13.50;9.82;;;;;;;4.08;100.00;100310.47;5103612;28;20274;-76
2021/11/09 03:49:24;;;;;;;12.35;9.60;;;;;;;4.28;100.00;100305.59;5110439;28;20248;-76
2021/11/09 03:51:51;;;;;;;16.30;9.48;;;;;;;3.97;100.00;100306.19;5112132;28;20212;-76
2021/11/09 03:54:20;;;;;;;12.95;9.98;;;;;;;3.74;100.00;100313.78;5107861;28;20207;-77
2021/11/09 03:56:52;;;;;;;11.48;9.20;;;;;;;3.72;100.00;100313.78;5103905;28;20209;-77
2021/11/09 03:59:22;;;;;;;20.67;8.70;;;;;;;3.54;100.00;100315.00;5098362;28;20177;-77
2021/11/09 04:02:02;;;;;;;13.00;9.30;;;;;;;3.72;100.00;100307.59;5103924;28;20181;-78
2021/11/09 04:04:40;;;;;;;14.13;9.73;;;;;;;3.59;100.00;100319.38;5108667;28;20183;-77
2021/11/09 04:07:10;;;;;;;15.77;9.20;;;;;;;3.47;100.00;100318.69;5104687;28;20191;-78
2021/11/09 04:09:53;;;;;;;13.23;9.63;;;;;;;3.48;100.00;100316.91;5111310;28;20306;-76
2021/11/09 04:12:33;;;;;;;13.27;9.35;;;;;;;3.77;100.00;100316.38;5103840;28;20180;-77
2021/11/09 04:15:10;;;;;;;13.23;10.43;;;;;;;3.61;100.00;100317.56;5100708;28;20230;-78
2021/11/09 04:17:53;;;;;;;14.35;10.00;;;;;;;3.56;100.00;100322.97;5107845;28;20273;-76
2021/11/09 04:20:31;;;;;;;13.82;9.48;;;;;;;3.96;100.00;100319.56;5110436;28;20241;-77
2021/11/09 04:26:03;;;;;;;13.65;10.05;;;;;;;4.16;100.00;100313.81;5075796;28;20270;-76
2021/11/09 04:28:40;;;;;;;13.40;10.02;;;;;;;4.10;98.60;100306.84;5108321;28;20563;-77
2021/11/09 04:31:19;;;;;;;12.85;8.45;;;;;;;3.82;99.31;100309.19;5102316;28;20218;-78
2021/11/09 04:34:20;;;;;;;14.05;9.23;;;;;;;3.41;100.00;100301.94;5111624;28;20188;-78
2021/11/09 04:40:33;;;;;;;15.48;10.18;;;;;;;3.30;100.00;100304.78;5110083;28;20229;-78
2021/11/09 05:09:59;;;;;;;16.00;8.25;;;;;;;3.17;100.00;100341.38;5091759;28;20735;-78
2021/11/09 05:12:25;;;;;;;10.07;7.80;;;;;;;3.39;100.00;100351.66;5100180;28;20260;-78
2021/11/09 05:14:52;;;;;;;11.95;8.50;;;;;;;3.42;100.00;100346.31;5110917;28;20252;-77
2021/11/09 05:17:20;;;;;;;10.13;7.93;;;;;;;3.29;100.00;100354.47;5109231;28;20191;-77
2021/11/09 05:19:46;;;;;;;11.18;7.97;;;;;;;3.17;100.00;100356.47;5108366;28;20195;-77
2021/11/09 05:22:13;;;;;;;12.23;8.80;;;;;;;3.24;100.00;100358.13;5101897;28;20392;-77
2021/11/09 05:24:42;;;;;;;14.50;8.90;;;;;;;3.17;100.00;100349.38;5100883;28;20195;-77
2021/11/09 05:27:10;;;;;;;16.27;8.85;;;;;;;3.28;100.00;100358.06;5109431;28;20192;-77
2021/11/09 05:29:37;;;;;;;11.90;9.00;;;;;;;3.40;100.00;100359.63;5103474;28;20561;-76
2021/11/09 05:32:04;;;;;;;12.52;9.52;;;;;;;3.51;100.00;100351.47;5108697;28;20279;-76
2021/11/09 05:34:32;;;;;;;13.48;9.30;;;;;;;3.78;100.00;100358.09;5106397;28;20274;-78
2021/11/09 05:36:59;;;;;;;12.40;8.43;;;;;;;3.63;100.00;100353.91;5106911;28;20184;-76
2021/11/09 05:39:32;;;;;;;13.27;8.68;;;;;;;3.42;100.00;100355.16;5102936;28;20195;-77
2021/11/09 05:41:59;;;;;;;10.90;8.35;;;;;;;3.67;100.00;100349.41;5110086;28;20599;-77
2021/11/09 05:44:26;;;;;;;11.20;8.90;;;;;;;3.68;100.00;100353.81;5103561;28;20192;-77
2021/11/09 05:46:53;;;;;;;13.43;9.48;;;;;;;3.65;100.00;100359.22;5105517;28;20190;-78
2021/11/09 05:49:19;;;;;;;13.75;9.40;;;;;;;3.48;100.00;100357.75;5110667;28;20200;-77
2021/11/09 05:51:48;;;;;;;12.63;8.38;;;;;;;3.44;100.00;100356.03;5106623;28;20706;-77
2021/11/09 05:54:14;;;;;;;12.93;9.48;;;;;;;3.45;100.00;100359.56;5113561;28;20188;-76
2021/11/09 05:56:41;;;;;;;17.08;10.05;;;;;;;3.63;100.00;100356.56;5114625;28;20188;-77
2021/11/09 05:59:08;;;;;;;13.35;10.00;;;;;;;3.38;100.00;100356.13;5113248;28;20214;-77
2021/11/09 06:01:34;;;;;;;17.90;9.20;;;;;;;3.12;100.00;100360.09;5113755;28;20599;-77
2021/11/09 06:04:01;;;;;;;13.13;9.38;;;;;;;3.03;100.00;100365.56;5113512;28;20594;-77
2021/11/09 06:06:28;;;;;;;18.45;10.88;;;;;;;3.09;100.00;100367.22;5114092;28;20214;-77
2021/11/09 06:08:56;;;;;;;20.80;10.52;;;;;;;3.02;100.00;100360.25;5113793;28;20204;-77
2021/11/09 06:11:22;;;;;;;14.32;10.48;;;;;;;2.62;100.00;100375.00;5111113;28;20200;-79
2021/11/09 06:13:49;;;;;;;15.95;10.32;;;;;;;2.70;100.00;100373.09;5113064;28;20304;-77
2021/11/09 06:16:16;;;;;;;21.90;12.02;;;;;;;2.96;100.00;100378.94;5112832;28;20222;-78
2021/11/09 06:18:42;;;;;;;15.50;9.77;;;;;;;2.80;100.00;100373.84;5112636;28;20198;-76
2021/11/09 06:21:10;;;;;;;18.67;9.70;;;;;;;2.68;100.00;100374.03;5113099;28;20188;-78
2021/11/09 06:23:36;;;;;;;25.40;10.05;;;;;;;2.48;100.00;100380.47;5113016;28;20187;-78
2021/11/09 06:26:05;;;;;;;17.13;10.57;;;;;;;2.62;100.00;100384.72;5104465;28;20184;-79
2021/11/09 06:28:32;;;;;;;16.00;10.30;;;;;;;2.69;100.00;100391.72;5112203;28;20549;-79
2021/11/09 06:30:59;;;;;;;15.15;10.95;;;;;;;2.92;100.00;100380.78;5112727;28;20194;-77
2021/11/09 06:33:26;;;;;;;17.70;11.88;;;;;;;2.98;100.00;100388.66;5111990;28;20279;-77
2021/11/09 06:35:54;;;;;;;19.23;10.48;;;;;;;2.62;100.00;100390.06;5111773;28;20192;-77
2021/11/09 06:38:21;;;;;;;16.48;11.65;;;;;;;2.93;100.00;100388.72;5112236;28;20274;-77
2021/11/09 06:40:48;;;;;;;18.00;12.20;;;;;;;2.99;100.00;100394.91;5112462;28;20516;-77
2021/11/09 06:43:16;;;;;;;19.90;13.05;;;;;;;2.95;100.00;100402.03;5112069;28;20213;-77
2021/11/09 06:45:43;;;;;;;17.92;11.38;;;;;;;2.67;100.00;100399.75;5112686;28;20191;-78
2021/11/09 06:48:10;;;;;;;22.35;10.95;;;;;;;2.77;100.00;100411.13;5111064;28;20195;-78
2021/11/09 06:50:37;;;;;;;18.48;10.77;;;;;;;2.87;100.00;100406.56;5111793;28;20202;-78
2021/11/09 06:53:04;;;;;;;15.85;11.82;;;;;;;2.88;100.00;100406.53;5112595;28;20289;-78
2021/11/09 06:55:34;;;;;;;17.00;11.50;;;;;;;2.91;100.00;100413.59;5112438;28;20201;-77
2021/11/09 06:58:01;;;;;;;18.00;10.73;;;;;;;3.13;100.00;100420.38;5105611;28;20195;-78
2021/11/09 07:00:29;;;;;;;16.63;11.90;;;;;;;3.01;100.00;100417.00;5112503;28;20190;-78
2021/11/09 07:02:55;;;;;;;14.60;11.60;;;;;;;3.13;100.00;100420.38;5112023;28;20191;-78
2021/11/09 07:05:22;;;;;;;17.92;10.73;;;;;;;2.76;100.00;100424.44;5112002;28;20252;-79
2021/11/09 07:07:50;;;;;;;15.60;12.02;;;;;;;2.58;100.00;100421.13;5112884;28;20207;-79
2021/11/09 07:10:16;;;;;;;16.08;11.48;;;;;;;2.79;100.00;100427.09;5112214;28;20258;-80
2021/11/09 07:12:44;;;;;;;16.58;12.07;;;;;;;2.82;100.00;100421.72;5111142;28;20201;-80
2021/11/09 07:15:12;;;;;;;15.40;10.73;;;;;;;2.91;100.00;100421.59;5111937;28;20275;-79
2021/11/09 07:17:41;;;;;;;16.75;9.98;;;;;;;3.10;100.00;100424.88;5111905;28;20194;-80
2021/11/09 07:20:09;;;;;;;12.00;8.75;;;;;;;3.04;100.00;100424.97;5111434;28;20281;-80
2021/11/09 07:22:36;;;;;;;19.58;13.48;;;;;;;3.03;100.00;100429.41;5111096;28;20196;-79
2021/11/09 07:25:05;;;;;;;14.23;11.02;;;;;;;3.22;100.00;100438.00;5112299;28;20187;-78
2021/11/09 07:27:31;;;;;;;14.02;10.32;;;;;;;3.42;99.43;100440.38;5112191;28;20270;-79
2021/11/09 07:29:59;;;;;;;12.98;9.18;;;;;;;3.39;98.31;100448.38;5111812;28;20206;-78
2021/11/09 07:32:26;;;;;;;17.35;9.85;;;;;;;3.51;97.59;100442.00;5111760;28;20281;-79
2021/11/09 07:34:54;;;;;;;15.32;10.02;;;;;;;3.47;96.86;100441.16;5111888;28;20187;-79
2021/11/09 07:37:21;;;;;;;15.52;10.25;;;;;;;3.72;96.45;100438.97;5111829;28;20264;-80
2021/11/09 07:39:48;;;;;;;14.13;9.55;;;;;;;3.73;95.71;100437.19;5111950;28;20283;-79
2021/11/09 07:42:15;;;;;;;16.73;10.40;;;;;;;3.61;96.87;100435.63;5112080;28;20649;-79
2021/11/09 07:44:42;;;;;;;14.40;10.63;;;;;;;3.75;95.98;100430.06;5111910;28;20188;-79
2021/11/09 07:47:08;;;;;;;17.50;11.18;;;;;;;3.69;97.66;100438.19;5111791;28;20191;-81
2021/11/09 07:49:35;;;;;;;19.95;11.32;;;;;;;3.66;98.09;100435.53;5111786;28;20554;-80
2021/11/09 07:52:04;;;;;;;17.95;12.00;;;;;;;3.82;98.38;100429.06;5111425;28;20184;-80
2021/11/09 07:54:34;;;;;;;17.13;10.48;;;;;;;4.09;97.11;100425.03;5111402;28;20200;-80
2021/11/09 07:57:02;;;;;;;13.02;10.10;;;;;;;3.97;96.85;100426.13;5110432;28;20214;-80
2021/11/09 07:59:34;;;;;;;24.42;10.55;;;;;;;4.18;96.83;100434.63;5112065;28;20271;-80
2021/11/09 08:02:03;;;;;;;16.70;9.45;;;;;;;4.06;96.69;100435.75;5112765;28;20188;-80
2021/11/09 08:04:35;;;;;;;12.70;9.45;;;;;;;4.03;96.99;100433.13;5111999;28;20641;-80
2021/11/09 08:07:03;;;;;;;14.13;10.07;;;;;;;4.09;98.44;100433.03;5110963;28;20195;-78
2021/11/09 08:09:31;;;;;;;12.70;9.60;;;;;;;4.08;99.47;100433.06;5111191;28;20711;-79
2021/11/09 08:12:00;;;;;;;19.80;11.07;;;;;;;3.94;100.00;100435.97;5112074;28;20280;-79
2021/11/09 08:14:27;;;;;;;18.08;11.20;;;;;;;4.00;100.00;100429.63;5111582;28;20220;-80
2021/11/09 08:16:55;;;;;;;16.92;11.38;;;;;;;4.22;100.00;100428.34;5112229;28;20180;-79
2021/11/09 08:19:22;;;;;;;16.60;10.30;;;;;;;4.17;100.00;100425.75;5111660;28;20180;-80
2021/11/09 08:21:51;;;;;;;17.70;11.48;;;;;;;4.42;98.82;100429.75;5111882;28;20180;-80
2021/11/09 08:24:20;;;;;;;15.55;10.90;;;;;;;4.54;97.40;100432.16;5111924;28;20203;-79
2021/11/09 08:26:49;;;;;;;15.48;10.82;;;;;;;4.53;95.83;100425.97;5111156;28;20196;-80
2021/11/09 08:29:18;;;;;;;13.85;10.65;;;;;;;4.67;95.22;100423.00;5111703;28;20287;-80
2021/11/09 08:31:46;;;;;;;14.23;10.85;;;;;;;4.67;94.56;100430.13;5111874;28;20574;-79
2021/11/09 08:34:15;;;;;;;17.90;10.73;;;;;;;4.84;93.54;100429.75;5110937;28;20206;-80
2021/11/09 08:36:44;;;;;;;15.52;10.88;;;;;;;4.94;93.53;100431.34;5111025;28;20192;-79
2021/11/09 08:39:12;;;;;;;18.65;10.52;;;;;;;4.87;93.39;100432.38;5110922;28;20654;-80
2021/11/09 08:41:42;;;;;;;20.42;10.73;;;;;;;4.98;93.97;100425.91;5111333;28;20645;-78
2021/11/09 08:44:12;;;;;;;17.48;11.50;;;;;;;5.00;94.44;100428.53;5112194;28;20180;-81
2021/11/09 08:46:42;;;;;;;16.52;11.05;;;;;;;5.17;93.19;100423.69;5111432;28;20180;-80
2021/11/09 08:49:10;;;;;;;17.98;12.05;;;;;;;5.14;94.25;100429.09;5111520;28;20703;-80
2021/11/09 08:51:38;;;;;;;17.30;11.98;;;;;;;5.25;94.76;100420.84;5107552;28;20196;-81
2021/11/09 08:54:15;;;;;;;17.80;10.90;;;;;;;5.32;93.81;100416.25;5111640;28;20184;-80
2021/11/09 09:04:56;;;;;;;12.40;9.18;;;;;;;5.82;92.01;100417.66;5091293;28;20184;-80
2021/11/09 09:07:24;;;;;;;12.07;9.00;;;;;;;6.07;91.22;100416.19;5091198;28;20295;-79
2021/11/09 09:09:51;;;;;;;12.25;8.75;;;;;;;6.23;90.67;100406.84;5091521;28;20205;-81
2021/11/09 09:12:18;;;;;;;11.43;8.95;;;;;;;6.15;91.58;100415.06;5091480;28;20623;-81
2021/11/09 09:14:46;;;;;;;13.52;7.85;;;;;;;6.32;92.44;100401.22;5091223;28;20283;-79
2021/11/09 09:17:13;;;;;;;14.35;9.20;;;;;;;6.43;90.46;100414.31;5102002;28;20188;-79
2021/11/09 09:19:42;;;;;;;17.02;11.57;;;;;;;6.31;92.33;100404.84;5111065;28;20295;-81
2021/11/09 09:22:11;;;;;;;10.70;8.63;;;;;;;6.34;92.24;100404.75;5114737;28;20204;-79
2021/11/09 09:24:46;;;;;;;11.10;6.95;;;;;;;6.43;92.18;100403.59;5115657;28;20567;-78
2021/11/09 09:27:22;;;;;;;13.13;7.57;;;;;;;6.68;90.58;100415.34;5114563;28;20195;-79
2021/11/09 09:29:58;;;;;;;11.95;7.13;;;;;;;6.74;90.39;100414.31;5114567;28;20219;-80
2021/11/09 09:54:40;;;;;;;11.43;8.10;;;;;;;7.85;80.80;100400.97;5114742;28;20680;-81
2021/11/09 09:57:07;;;;;;;12.15;7.07;;;;;;;7.82;79.45;100390.31;5114299;28;20185;-80
2021/11/09 09:59:35;;;;;;;10.90;6.10;;;;;;;7.78;77.79;100390.47;5114020;28;20188;-80
2021/11/09 10:02:12;;;;;;;18.02;11.68;;;;;;;7.82;77.83;100392.13;5114380;28;20195;-80
2021/11/09 10:04:42;;;;;;;8.50;6.18;;;;;;;7.96;76.45;100392.56;5113287;28;20199;-80
2021/11/09 10:07:10;;;;;;;9.13;6.20;;;;;;;7.99;76.05;100394.25;5114285;28;20196;-79
2021/11/09 10:09:41;;;;;;;9.05;5.53;;;;;;;8.20;75.58;100392.59;5114495;28;20197;-80
2021/11/09 10:12:16;;;;;;;10.77;6.82;;;;;;;8.12;76.38;100391.09;5114825;28;20197;-79
2021/11/09 10:14:44;;;;;;;8.13;5.55;;;;;;;8.04;76.83;100392.28;5114134;28;20223;-81
2021/11/09 10:17:13;;;;;;;13.98;6.60;;;;;;;8.14;76.11;100397.28;5114116;28;20206;-80
2021/11/09 10:19:40;;;;;;;8.98;5.60;;;;;;;8.30;75.20;100399.41;5093706;28;20203;-81
2021/11/09 10:22:26;;;;;;;7.40;4.90;;;;;;;8.41;73.84;100393.66;5093943;28;20195;-80
2021/11/09 10:24:55;;;;;;;6.80;4.60;;;;;;;8.31;74.61;100388.59;5093985;28;20309;-80
2021/11/09 10:27:23;;;;;;;9.30;6.20;;;;;;;8.59;74.00;100376.88;5109974;28;20193;-80
2021/11/09 10:29:52;;;;;;;11.43;6.40;;;;;;;8.77;73.66;100386.94;5113974;28;20280;-81
2021/11/09 10:32:23;;;;;;;7.88;5.50;;;;;;;8.71;72.64;100376.44;5112846;28;20183;-79
2021/11/09 10:34:51;;;;;;;7.35;5.55;;;;;;;8.66;72.53;100381.09;5113354;28;20189;-81
2021/11/09 10:37:20;;;;;;;11.30;5.88;;;;;;;9.00;71.64;100381.59;5112248;28;20246;-79
2021/11/09 10:39:49;;;;;;;7.78;5.70;;;;;;;9.03;70.78;100368.06;5113473;28;20201;-79
2021/11/09 10:42:18;;;;;;;6.47;5.00;;;;;;;9.00;70.04;100376.22;5113965;28;20605;-79
2021/11/09 10:44:53;;;;;;;8.15;5.35;;;;;;;9.18;70.17;100375.53;5113524;28;20198;-80
2021/11/09 10:47:24;;;;;;;8.00;5.10;;;;;;;9.48;69.45;100368.00;5113311;28;20187;-80
2021/11/09 10:49:54;;;;;;;9.50;5.55;;;;;;;9.57;68.32;100367.63;5113323;28;20288;-80
2021/11/09 10:52:26;;;;;;;6.97;5.72;;;;;;;9.65;67.85;100369.97;5112688;28;20225;-80
2021/11/09 10:54:59;;;;;;;7.57;4.80;;;;;;;9.82;67.13;100366.59;5113590;28;20538;-80
2021/11/09 10:57:46;;;;;;;9.68;5.90;;;;;;;9.64;67.74;100359.31;5113072;28;20230;-80
2021/11/09 11:00:33;;;;;;;6.15;4.82;;;;;;;9.13;68.48;100361.38;5113316;28;20192;-80
2021/11/09 11:03:27;;;;;;;10.63;5.28;;;;;;;9.55;68.25;100356.06;5113437;28;20211;-80
2021/11/09 11:06:08;;;;;;;6.57;4.25;;;;;;;9.62;66.46;100362.06;5113401;28;20209;-80
2021/11/09 11:08:34;;;;;;;7.03;4.63;;;;;;;9.71;67.19;100358.97;5112956;28;20186;-81
2021/11/09 11:11:15;;;;;;;6.35;4.45;;;;;;;9.37;67.19;100354.13;5112171;28;20300;-80
2021/11/09 11:13:41;;;;;;;9.13;5.20;;;;;;;9.62;67.19;100358.50;5113089;28;20639;-80
2021/11/09 11:16:10;;;;;;;8.65;4.22;;;;;;;9.78;66.52;100352.38;5112787;28;20278;-81
2021/11/09 11:18:40;;;;;;;8.20;5.00;;;;;;;9.70;67.17;100345.59;5113185;28;20555;-80
2021/11/09 11:21:09;;;;;;;7.93;5.97;;;;;;;9.48;68.05;100349.19;5112247;28;20286;-79
2021/11/09 11:23:36;;;;;;;6.60;4.20;;;;;;;9.67;67.45;100341.22;5112758;28;20198;-79
2021/11/09 11:26:04;;;;;;;5.32;4.70;;;;;;;9.70;67.66;100338.41;5109927;28;20201;-80
2021/11/09 11:28:31;;;;;;;9.75;4.80;;;;;;;9.77;66.90;100337.22;5110446;28;20638;-79
2021/11/09 11:31:00;;;;;;;6.07;4.70;;;;;;;9.73;67.37;100329.34;5111390;28;20697;-79
2021/11/09 11:33:28;;;;;;;8.73;4.75;;;;;;;9.79;67.14;100335.31;5112252;28;20216;-80
2021/11/09 11:35:56;;;;;;;10.98;5.78;;;;;;;9.91;66.79;100333.03;5112170;28;20916;-81
2021/11/09 11:38:24;;;;;;;4.90;4.00;;;;;;;9.89;66.56;100318.78;5110546;28;20189;-80
2021/11/09 11:40:54;;;;;;;8.88;5.35;;;;;;;10.13;66.95;100315.00;5111124;28;20217;-79
2021/11/09 11:43:53;;;;;;;8.38;5.50;;;;;;;10.27;66.67;100313.53;5111835;28;20648;-80
2021/11/09 11:46:45;;;;;;;7.68;4.80;;;;;;;10.22;66.67;100301.13;5111857;28;20203;-80
2021/11/09 11:49:13;;;;;;;7.35;4.40;;;;;;;9.78;67.32;100287.84;5095915;28;20600;-80
2021/11/09 11:52:02;;;;;;;7.43;4.03;;;;;;;9.85;66.80;100287.56;5112090;28;20331;-80
2021/11/09 11:54:40;;;;;;;10.88;5.18;;;;;;;9.93;67.09;100294.38;5112660;28;20271;-79
2021/11/09 11:57:07;;;;;;;9.40;6.13;;;;;;;10.04;67.58;100293.91;5111994;28;20279;-80
2021/11/09 11:59:41;;;;;;;7.88;4.90;;;;;;;9.94;67.76;100289.84;5111350;28;20200;-80
2021/11/09 12:02:09;;;;;;;7.68;4.72;;;;;;;9.99;67.49;100277.97;5112001;28;20189;-80
2021/11/09 12:04:51;;;;;;;6.18;4.72;;;;;;;10.02;67.33;100285.88;5112611;28;20273;-81
2021/11/09 12:07:22;;;;;;;6.43;4.40;;;;;;;10.03;67.13;100278.69;5112327;28;20189;-79
2021/11/09 12:09:52;;;;;;;10.20;4.60;;;;;;;10.01;67.18;100278.75;5111867;28;20200;-79
2021/11/09 12:12:36;;;;;;;9.18;4.90;;;;;;;10.11;66.94;100272.97;5111862;28;20875;-79
2021/11/09 12:15:06;;;;;;;12.82;5.38;;;;;;;10.09;66.59;100281.09;5111514;28;20238;-80
2021/11/09 12:17:35;;;;;;;12.73;6.53;;;;;;;10.26;66.87;100280.31;5111797;28;20187;-80
2021/11/09 12:20:07;;;;;;;9.25;4.90;;;;;;;10.15;67.01;100275.44;5111420;28;20197;-79
2021/11/09 12:22:48;;;;;;;9.25;4.88;;;;;;;10.30;65.87;100270.34;5111292;28;20279;-79
2021/11/09 12:25:18;;;;;;;6.82;4.50;;;;;;;10.28;65.71;100264.09;5112097;28;20187;-79
2021/11/09 12:28:05;;;;;;;9.00;4.82;;;;;;;10.33;65.41;100268.34;5111295;28;20188;-79
2021/11/09 12:30:44;;;;;;;13.27;6.78;;;;;;;10.44;65.57;100254.41;5111378;28;20295;-79
2021/11/09 12:33:14;;;;;;;6.07;4.32;;;;;;;10.16;65.91;100258.34;5091479;28;20241;-79
2021/11/09 12:35:41;;;;;;;8.20;4.65;;;;;;;10.04;66.29;100253.53;5091025;28;20219;-81
2021/11/09 12:38:13;;;;;;;6.15;4.28;;;;;;;10.17;65.86;100249.31;5096048;28;20589;-80
2021/11/09 12:40:47;;;;;;;8.02;4.70;;;;;;;10.29;65.73;100247.94;5110870;28;20285;-79
2021/11/09 12:43:17;;;;;;;10.18;5.07;;;;;;;10.44;65.18;100246.31;5111869;28;20187;-80
2021/11/09 12:45:48;;;;;;;7.13;4.53;;;;;;;10.37;65.55;100243.03;5111093;28;20199;-79
2021/11/09 12:48:23;;;;;;;6.72;4.60;;;;;;;10.38;65.54;100241.25;5111071;28;20599;-80
2021/11/09 12:50:53;;;;;;;7.47;5.07;;;;;;;10.39;64.98;100242.97;5111265;28;20230;-79
2021/11/09 12:53:23;;;;;;;8.00;5.07;;;;;;;10.47;65.00;100240.81;5111179;28;20553;-81
2021/11/09 12:56:04;;;;;;;6.47;4.35;;;;;;;10.65;64.19;100247.13;5112541;28;20191;-80
2021/11/09 12:58:35;;;;;;;8.82;4.45;;;;;;;10.54;63.63;100252.16;5116186;28;20188;-80